Time,TemperatureF,DewpointF,PressureIn,WindDirection,WindDirectionDegrees,WindSpeedMPH,WindSpeedGustMPH,Humidity,HourlyPrecipIn,Conditions,Clouds,dailyrainin,SoftwareType,DateUTC
2013-01-19 00:00:00,19.4,14.8,29.30,ENE,68,0.0,0.0,82,0.00,,,-99.99,VWS V12.07,2013-01-19 06:00:00,
2013-01-19 00:05:00,19.5,14.9,29.30,ENE,68,0.0,0.0,82,0.00,,,-99.99,VWS V12.07,2013-01-19 06:05:00,
2013-01-19 00:10:00,19.5,14.9,29.30,ENE,68,0.0,0.0,82,0.00,,,-99.99,VWS V12.07,2013-01-19 06:10:00,
2013-01-19 00:20:00,19.5,14.9,29.31,ENE,68,0.0,0.0,82,0.00,,,-99.99,VWS V12.07,2013-01-19 06:20:00,
2013-01-19 00:25:00,19.5,14.9,29.32,ENE,68,0.0,0.0,82,0.00,,,-99.99,VWS V12.07,2013-01-19 06:25:00,
2013-01-19 00:30:00,19.5,15.2,29.33,ENE,68,0.0,0.0,83,0.00,,,-99.99,VWS V12.07,2013-01-19 06:30:00,
2013-01-19 00:40:00,19.9,15.6,29.31,ENE,68,0.0,0.0,83,0.00,,,-99.99,VWS V12.07,2013-01-19 06:40:00,
2013-01-19 00:45:00,19.9,15.6,29.32,ENE,68,0.0,0.0,83,0.00,,,-99.99,VWS V12.07,2013-01-19 06:45:00,
2013-01-19 00:50:00,19.9,15.6,29.32,ENE,68,0.0,0.0,83,0.00,,,-99.99,VWS V12.07,2013-01-19 06:50:00,
2013-01-19 00:55:00,19.9,15.6,29.32,ENE,68,0.0,0.0,83,0.00,,,-99.99,VWS V12.07,2013-01-19 06:55:00,
2013-01-19 01:00:00,20.1,15.8,29.32,ENE,68,0.0,0.0,83,0.00,,,-99.99,VWS V12.07,2013-01-19 07:00:00,
2013-01-19 01:05:00,20.1,15.8,29.32,ENE,68,0.0,0.0,83,0.00,,,-99.99,VWS V12.07,2013-01-19 07:05:00,
2013-01-19 01:10:00,20.3,16.0,29.32,ENE,68,0.0,0.0,83,0.00,,,-99.99,VWS V12.07,2013-01-19 07:10:00,
2013-01-19 01:15:00,20.3,16.0,29.32,ENE,68,0.0,0.0,83,0.00,,,-99.99,VWS V12.07,2013-01-19 07:15:00,
2013-01-19 01:20:00,20.3,16.0,29.32,ENE,68,0.0,0.0,83,0.00,,,-99.99,VWS V12.07,2013-01-19 07:20:00,
2013-01-19 01:25:00,20.4,16.1,29.33,ENE,68,0.0,0.0,83,0.00,,,-99.99,VWS V12.07,2013-01-19 07:25:00,
2013-01-19 01:30:00,20.4,16.1,29.34,ENE,68,0.0,0.0,83,0.00,,,-99.99,VWS V12.07,2013-01-19 07:30:00,
2013-01-19 01:35:00,20.4,16.1,29.33,ENE,68,0.0,0.0,83,0.00,,,-99.99,VWS V12.07,2013-01-19 07:35:00,
2013-01-19 01:40:00,20.4,16.1,29.34,ENE,68,0.0,0.0,83,0.00,,,-99.99,VWS V12.07,2013-01-19 07:40:00,
2013-01-19 01:45:00,20.4,16.1,29.34,ENE,68,0.0,0.0,83,0.00,,,-99.99,VWS V12.07,2013-01-19 07:45:00,
2013-01-19 01:50:00,20.4,16.1,29.34,ENE,68,0.0,0.0,83,0.00,,,-99.99,VWS V12.07,2013-01-19 07:50:00,
2013-01-19 01:55:00,20.4,16.1,29.34,ENE,68,0.0,0.0,83,0.00,,,-99.99,VWS V12.07,2013-01-19 07:55:00,
2013-01-19 02:00:00,20.4,16.1,29.34,ENE,68,0.0,0.0,83,0.00,,,-99.99,VWS V12.07,2013-01-19 08:00:00,
2013-01-19 02:05:00,20.4,16.1,29.34,ENE,68,0.0,0.0,83,0.00,,,-99.99,VWS V12.07,2013-01-19 08:05:00,
2013-01-19 02:10:00,20.4,16.1,29.33,ENE,68,0.0,0.0,83,0.00,,,-99.99,VWS V12.07,2013-01-19 08:10:00,
2013-01-19 02:15:00,20.4,16.1,29.34,ENE,68,0.0,0.0,83,0.00,,,-99.99,VWS V12.07,2013-01-19 08:15:00,
2013-01-19 02:20:00,20.4,16.1,29.34,ENE,68,0.0,0.0,83,0.00,,,-99.99,VWS V12.07,2013-01-19 08:20:00,
2013-01-19 02:25:00,20.4,16.1,29.34,ENE,68,0.0,0.0,83,0.00,,,-99.99,VWS V12.07,2013-01-19 08:25:00,
2013-01-19 02:30:00,20.4,16.4,29.34,ENE,68,0.0,0.0,84,0.00,,,-99.99,VWS V12.07,2013-01-19 08:30:00,
2013-01-19 02:35:00,20.4,16.4,29.34,ENE,68,0.0,0.0,84,0.00,,,-99.99,VWS V12.07,2013-01-19 08:35:00,
2013-01-19 02:40:00,20.4,16.4,29.34,ENE,68,0.0,0.0,84,0.00,,,-99.99,VWS V12.07,2013-01-19 08:40:00,
2013-01-19 02:45:00,20.6,16.5,29.34,ENE,68,0.0,0.0,84,0.00,,,-99.99,VWS V12.07,2013-01-19 08:45:00,
2013-01-19 02:50:00,20.8,16.7,29.34,ENE,68,0.0,0.0,84,0.00,,,-99.99,VWS V12.07,2013-01-19 08:50:00,
2013-01-19 02:55:00,20.8,16.7,29.34,ENE,68,0.0,0.0,84,0.00,,,-99.99,VWS V12.07,2013-01-19 08:55:00,
2013-01-19 03:00:00,20.8,16.7,29.35,ENE,68,0.0,0.0,84,0.00,,,-99.99,VWS V12.07,2013-01-19 09:00:00,
2013-01-19 03:05:00,20.8,16.7,29.35,ENE,68,0.0,0.0,84,0.00,,,-99.99,VWS V12.07,2013-01-19 09:05:00,
2013-01-19 03:10:00,20.8,16.7,29.35,South,180,0.0,0.0,84,0.00,,,-99.99,VWS V12.07,2013-01-19 09:10:00,
2013-01-19 03:15:00,21.0,16.9,29.34,West,270,0.0,0.0,84,0.00,,,-99.99,VWS V12.07,2013-01-19 09:15:00,
2013-01-19 03:20:00,21.0,16.9,29.34,West,270,0.0,0.0,84,0.00,,,-99.99,VWS V12.07,2013-01-19 09:20:00,
2013-01-19 03:25:00,21.0,16.9,29.35,West,270,0.0,0.0,84,0.00,,,-99.99,VWS V12.07,2013-01-19 09:25:00,
2013-01-19 03:30:00,21.2,17.1,29.36,West,270,0.0,0.0,84,0.00,,,-99.99,VWS V12.07,2013-01-19 09:30:00,
2013-01-19 03:35:00,21.3,17.2,29.35,West,270,0.0,0.0,84,0.00,,,-99.99,VWS V12.07,2013-01-19 09:35:00,
2013-01-19 03:40:00,21.3,17.2,29.34,West,270,0.0,0.0,84,0.00,,,-99.99,VWS V12.07,2013-01-19 09:40:00,
2013-01-19 03:50:00,21.3,17.2,29.34,West,270,0.0,0.0,84,0.00,,,-99.99,VWS V12.07,2013-01-19 09:50:00,
2013-01-19 03:55:00,21.3,17.2,29.33,West,270,0.0,0.0,84,0.00,,,-99.99,VWS V12.07,2013-01-19 09:55:00,
2013-01-19 04:00:00,21.3,17.2,29.34,West,270,0.0,0.0,84,0.00,,,-99.99,VWS V12.07,2013-01-19 10:00:00,
2013-01-19 04:05:00,21.3,17.2,29.34,West,270,0.0,0.0,84,0.00,,,-99.99,VWS V12.07,2013-01-19 10:05:00,
2013-01-19 04:15:00,21.3,17.2,29.33,West,270,0.0,0.0,84,0.00,,,-99.99,VWS V12.07,2013-01-19 10:15:00,
2013-01-19 04:25:00,21.3,17.2,29.33,West,270,0.0,0.0,84,0.00,,,-99.99,VWS V12.07,2013-01-19 10:25:00,
2013-01-19 04:35:00,21.3,17.2,29.33,West,270,0.0,0.0,84,0.00,,,-99.99,VWS V12.07,2013-01-19 10:35:00,
2013-01-19 04:40:00,21.3,17.2,29.32,West,270,0.0,0.0,84,0.00,,,-99.99,VWS V12.07,2013-01-19 10:40:00,
2013-01-19 04:50:00,21.3,17.5,29.32,West,270,0.0,0.0,85,0.00,,,-99.99,VWS V12.07,2013-01-19 10:50:00,
2013-01-19 04:55:00,21.3,17.5,29.31,West,270,0.0,0.0,85,0.00,,,-99.99,VWS V12.07,2013-01-19 10:55:00,
2013-01-19 05:05:00,21.5,17.7,29.31,West,270,0.0,0.0,85,0.00,,,-99.99,VWS V12.07,2013-01-19 11:05:00,
2013-01-19 05:10:00,21.5,17.7,29.30,West,270,0.0,0.0,85,0.00,,,-99.99,VWS V12.07,2013-01-19 11:10:00,
2013-01-19 05:15:00,21.5,17.7,29.32,West,270,0.0,0.0,85,0.00,,,-99.99,VWS V12.07,2013-01-19 11:15:00,
2013-01-19 06:50:00,21.7,17.9,29.29,West,270,0.0,0.0,85,0.00,,,-99.99,VWS V12.07,2013-01-19 12:50:00,
2013-01-19 06:55:00,21.7,17.9,29.28,West,270,0.0,0.0,85,0.00,,,-99.99,VWS V12.07,2013-01-19 12:55:00,
2013-01-19 07:00:00,21.7,17.9,29.29,West,270,0.0,0.0,85,0.00,,,-99.99,VWS V12.07,2013-01-19 13:00:00,
2013-01-19 07:10:00,21.7,17.9,29.29,West,270,0.0,0.0,85,0.00,,,-99.99,VWS V12.07,2013-01-19 13:10:00,
2013-01-19 07:15:00,21.9,18.1,29.28,West,270,0.0,0.0,85,0.00,,,-99.99,VWS V12.07,2013-01-19 13:15:00,
2013-01-19 07:20:00,21.9,18.1,29.28,West,270,0.0,0.0,85,0.00,,,-99.99,VWS V12.07,2013-01-19 13:20:00,
2013-01-19 07:25:00,21.9,18.1,29.28,West,270,0.0,0.0,85,0.00,,,-99.99,VWS V12.07,2013-01-19 13:25:00,
2013-01-19 07:35:00,21.9,18.1,29.27,West,270,0.0,0.0,85,0.00,,,-99.99,VWS V12.07,2013-01-19 13:35:00,
2013-01-19 07:40:00,22.1,18.3,29.27,West,270,0.0,0.0,85,0.00,,,-99.99,VWS V12.07,2013-01-19 13:40:00,
2013-01-19 07:45:00,22.1,18.6,29.27,West,270,0.0,0.0,86,0.00,,,-99.99,VWS V12.07,2013-01-19 13:45:00,
2013-01-19 07:55:00,22.2,18.7,29.26,West,270,0.0,0.0,86,0.00,,,-99.99,VWS V12.07,2013-01-19 13:55:00,
2013-01-19 08:00:00,22.2,18.7,29.25,West,270,0.0,0.0,86,0.00,,,-99.99,VWS V12.07,2013-01-19 14:00:00,
2013-01-19 08:05:00,22.4,18.9,29.25,West,270,0.0,0.0,86,0.00,,,-99.99,VWS V12.07,2013-01-19 14:05:00,
2013-01-19 08:10:00,22.4,18.9,29.25,West,270,0.0,0.0,86,0.00,,,-99.99,VWS V12.07,2013-01-19 14:10:00,
2013-01-19 08:15:00,22.6,19.0,29.24,West,270,0.0,0.0,86,0.00,,,-99.99,VWS V12.07,2013-01-19 14:15:00,
2013-01-19 08:25:00,22.8,19.2,29.24,West,270,0.0,0.0,86,0.00,,,-99.99,VWS V12.07,2013-01-19 14:25:00,
2013-01-19 08:30:00,22.8,19.2,29.24,West,270,0.0,0.0,86,0.00,,,-99.99,VWS V12.07,2013-01-19 14:30:00,
2013-01-19 08:40:00,22.8,19.2,29.25,WSW,248,0.0,0.0,86,0.00,,,-99.99,VWS V12.07,2013-01-19 14:40:00,
2013-01-19 08:45:00,23.1,19.5,29.26,SW,225,0.0,0.0,86,0.00,,,-99.99,VWS V12.07,2013-01-19 14:45:00,
2013-01-19 08:50:00,23.3,19.7,29.25,SW,225,0.0,0.0,86,0.00,,,-99.99,VWS V12.07,2013-01-19 14:50:00,
2013-01-19 08:55:00,23.5,19.9,29.25,SW,225,0.0,0.0,86,0.00,,,-99.99,VWS V12.07,2013-01-19 14:55:00,
2013-01-19 09:00:00,23.7,20.1,29.26,SSW,202,0.0,0.0,86,0.00,,,-99.99,VWS V12.07,2013-01-19 15:00:00,
2013-01-19 09:10:00,24.0,20.7,29.25,SW,225,0.0,0.0,87,0.00,,,-99.99,VWS V12.07,2013-01-19 15:10:00,
2013-01-19 09:15:00,24.4,21.1,29.26,SW,225,4.4,4.6,87,0.00,,,-99.99,VWS V12.07,2013-01-19 15:15:00,
2013-01-19 09:20:00,24.6,21.3,29.26,South,180,4.6,4.6,87,0.00,,,-99.99,VWS V12.07,2013-01-19 15:20:00,
2013-01-19 09:25:00,24.8,21.5,29.26,SSW,202,0.0,4.6,87,0.00,,,-99.99,VWS V12.07,2013-01-19 15:25:00,
2013-01-19 09:30:00,24.9,21.6,29.26,SSW,202,0.0,4.6,87,0.00,,,-99.99,VWS V12.07,2013-01-19 15:30:00,
2013-01-19 09:35:00,25.3,22.0,29.26,WNW,292,0.0,0.0,87,0.00,,,-99.99,VWS V12.07,2013-01-19 15:35:00,
2013-01-19 09:40:00,25.3,22.0,29.26,WNW,292,0.0,0.0,87,0.00,,,-99.99,VWS V12.07,2013-01-19 15:40:00,
2013-01-19 09:45:00,25.5,22.2,29.27,WNW,292,0.0,0.0,87,0.00,,,-99.99,VWS V12.07,2013-01-19 15:45:00,
2013-01-19 09:50:00,25.8,22.5,29.26,WNW,292,0.0,0.0,87,0.00,,,-99.99,VWS V12.07,2013-01-19 15:50:00,
2013-01-19 09:55:00,26.0,22.7,29.25,WNW,292,0.0,0.0,87,0.00,,,-99.99,VWS V12.07,2013-01-19 15:55:00,
2013-01-19 10:00:00,26.2,22.9,29.26,West,270,0.0,0.0,87,0.00,,,-99.99,VWS V12.07,2013-01-19 16:00:00,
2013-01-19 10:05:00,26.4,23.1,29.25,SW,225,0.0,0.0,87,0.00,,,-99.99,VWS V12.07,2013-01-19 16:05:00,
2013-01-19 10:10:00,26.4,23.1,29.25,SW,225,0.0,0.0,87,0.00,,,-99.99,VWS V12.07,2013-01-19 16:10:00,
2013-01-19 10:15:00,26.7,23.4,29.24,SW,225,0.0,0.0,87,0.00,,,-99.99,VWS V12.07,2013-01-19 16:15:00,
2013-01-19 10:20:00,27.1,23.8,29.24,SW,225,1.7,1.7,87,0.00,,,-99.99,VWS V12.07,2013-01-19 16:20:00,
2013-01-19 10:25:00,27.3,24.0,29.24,SW,225,3.3,3.3,87,0.00,,,-99.99,VWS V12.07,2013-01-19 16:25:00,
2013-01-19 10:30:00,27.6,24.2,29.24,SW,225,0.0,3.3,87,0.00,,,-99.99,VWS V12.07,2013-01-19 16:30:00,
2013-01-19 10:35:00,27.6,24.2,29.23,SW,225,0.0,1.3,87,0.00,,,-99.99,VWS V12.07,2013-01-19 16:35:00,
2013-01-19 10:45:00,28.5,25.1,29.22,South,180,0.0,1.5,87,0.00,,,-99.99,VWS V12.07,2013-01-19 16:45:00,
2013-01-19 10:50:00,28.7,25.3,29.22,SSW,202,4.0,4.9,87,0.00,,,-99.99,VWS V12.07,2013-01-19 16:50:00,
2013-01-19 10:55:00,29.1,25.7,29.21,SW,225,4.0,4.9,87,0.00,,,-99.99,VWS V12.07,2013-01-19 16:55:00,
2013-01-19 11:00:00,30.0,26.9,29.21,SSW,202,3.1,6.7,88,0.00,,,-99.99,VWS V12.07,2013-01-19 17:00:00,
2013-01-19 11:05:00,30.3,26.9,29.20,SW,225,1.7,4.2,87,0.00,,,-99.99,VWS V12.07,2013-01-19 17:05:00,
2013-01-19 11:10:00,30.9,27.5,29.20,SSW,202,7.6,7.6,87,0.00,,,-99.99,VWS V12.07,2013-01-19 17:10:00,
2013-01-19 11:20:00,31.6,27.9,29.19,SSW,202,9.8,9.8,86,0.00,,,-99.99,VWS V12.07,2013-01-19 17:20:00,
2013-01-19 11:30:00,32.1,28.1,29.18,SW,225,3.5,9.8,85,0.00,,,-99.99,VWS V12.07,2013-01-19 17:30:00,
2013-01-19 11:35:00,32.5,28.5,29.18,SW,225,2.9,4.9,85,0.00,,,-99.99,VWS V12.07,2013-01-19 17:35:00,
2013-01-19 11:40:00,32.5,28.2,29.18,WSW,248,6.7,6.7,84,0.00,,,-99.99,VWS V12.07,2013-01-19 17:40:00,
2013-01-19 11:45:00,32.7,28.4,29.17,SSW,202,6.2,6.7,84,0.00,,,-99.99,VWS V12.07,2013-01-19 17:45:00,
2013-01-19 11:50:00,32.7,28.4,29.16,SSW,202,3.8,6.2,84,0.00,,,-99.99,VWS V12.07,2013-01-19 17:50:00,
2013-01-19 12:00:00,32.9,28.3,29.15,SSW,202,4.9,6.4,83,0.00,,,-99.99,VWS V12.07,2013-01-19 18:00:00,
2013-01-19 12:05:00,33.0,28.4,29.15,SSW,202,5.3,5.3,83,0.00,,,-99.99,VWS V12.07,2013-01-19 18:05:00,
2013-01-19 12:10:00,33.0,28.4,29.15,SSW,202,4.6,5.3,83,0.00,,,-99.99,VWS V12.07,2013-01-19 18:10:00,
2013-01-19 12:15:00,32.9,28.0,29.15,WSW,248,0.8,6.0,82,0.00,,,-99.99,VWS V12.07,2013-01-19 18:15:00,
2013-01-19 12:25:00,32.9,28.0,29.14,SSW,202,2.9,6.2,82,0.00,,,-99.99,VWS V12.07,2013-01-19 18:25:00,
2013-01-19 12:30:00,33.0,28.1,29.14,SSW,202,0.0,6.2,82,0.00,,,-99.99,VWS V12.07,2013-01-19 18:30:00,
2013-01-19 12:35:00,33.0,28.1,29.14,SW,225,2.6,2.6,82,0.00,,,-99.99,VWS V12.07,2013-01-19 18:35:00,
2013-01-19 12:40:00,33.2,28.3,29.13,NNW,338,2.4,3.5,82,0.00,,,-99.99,VWS V12.07,2013-01-19 18:40:00,
2013-01-19 12:45:00,33.2,28.3,29.13,SSW,202,3.5,3.5,82,0.00,,,-99.99,VWS V12.07,2013-01-19 18:45:00,
2013-01-19 12:50:00,33.0,28.1,29.13,SSW,202,5.8,5.8,82,0.00,,,-99.99,VWS V12.07,2013-01-19 18:50:00,
2013-01-19 13:05:00,33.6,28.7,29.12,South,180,7.1,7.1,82,0.00,,,-99.99,VWS V12.07,2013-01-19 19:05:00,
2013-01-19 13:10:00,33.6,28.7,29.12,SW,225,1.7,7.1,82,0.00,,,-99.99,VWS V12.07,2013-01-19 19:10:00,
2013-01-19 13:20:00,33.9,28.7,29.12,SW,225,5.3,6.4,81,0.00,,,-99.99,VWS V12.07,2013-01-19 19:20:00,
2013-01-19 13:25:00,33.8,28.6,29.11,SW,225,0.6,6.4,81,0.00,,,-99.99,VWS V12.07,2013-01-19 19:25:00,
2013-01-19 13:45:00,33.6,28.4,29.10,SW,225,0.6,3.8,81,0.00,,,-99.99,VWS V12.07,2013-01-19 19:45:00,
2013-01-19 14:00:00,33.8,28.9,29.09,SSW,202,3.5,5.8,82,0.00,,,-99.99,VWS V12.07,2013-01-19 20:00:00,
2013-01-19 14:10:00,34.1,29.2,29.08,WSW,248,0.0,3.5,82,0.00,,,-99.99,VWS V12.07,2013-01-19 20:10:00,
2013-01-19 14:15:00,34.1,29.2,29.08,SSW,202,3.5,8.2,82,0.00,,,-99.99,VWS V12.07,2013-01-19 20:15:00,
2013-01-19 14:20:00,34.3,29.4,29.09,SW,225,4.6,7.3,82,0.00,,,-99.99,VWS V12.07,2013-01-19 20:20:00,
2013-01-19 14:25:00,34.3,29.4,29.09,SSW,202,6.9,7.3,82,0.00,,,-99.99,VWS V12.07,2013-01-19 20:25:00,
2013-01-19 14:30:00,34.3,29.1,29.09,SSW,202,1.5,7.3,81,0.00,,,-99.99,VWS V12.07,2013-01-19 20:30:00,
2013-01-19 14:40:00,34.3,29.1,29.09,West,270,0.0,5.3,81,0.02,,,-99.99,VWS V12.07,2013-01-19 20:40:00,
2013-01-19 14:45:00,34.3,29.1,29.08,SSW,202,1.7,6.7,81,0.02,,,-99.99,VWS V12.07,2013-01-19 20:45:00,
2013-01-19 14:50:00,34.3,29.1,29.09,SSW,202,3.3,3.3,81,0.02,,,-99.99,VWS V12.07,2013-01-19 20:50:00,
2013-01-19 14:55:00,34.1,28.9,29.10,SW,225,5.5,5.5,81,0.02,,,-99.99,VWS V12.07,2013-01-19 20:55:00,
2013-01-19 15:00:00,33.8,28.6,29.10,NNW,338,2.4,8.5,81,0.02,,,-99.99,VWS V12.07,2013-01-19 21:00:00,
2013-01-19 15:05:00,33.6,28.4,29.09,SW,225,2.6,2.6,81,0.02,,,-99.99,VWS V12.07,2013-01-19 21:05:00,
2013-01-19 15:10:00,33.4,28.2,29.09,West,270,0.0,2.6,81,0.02,,,-99.99,VWS V12.07,2013-01-19 21:10:00,
2013-01-19 15:20:00,33.0,27.8,29.10,SSW,202,6.7,6.7,81,0.02,,,-99.99,VWS V12.07,2013-01-19 21:20:00,
2013-01-19 15:25:00,33.0,27.8,29.10,West,270,0.0,6.7,81,0.02,,,-99.99,VWS V12.07,2013-01-19 21:25:00,
2013-01-19 15:35:00,32.7,27.5,29.11,WSW,248,3.8,3.8,81,0.00,,,-99.99,VWS V12.07,2013-01-19 21:35:00,
2013-01-19 15:40:00,32.3,27.1,29.11,WSW,248,5.1,5.1,81,0.00,,,-99.99,VWS V12.07,2013-01-19 21:40:00,
2013-01-19 15:45:00,31.8,26.6,29.11,South,180,0.0,5.5,81,0.00,,,-99.99,VWS V12.07,2013-01-19 21:45:00,
2013-01-19 15:55:00,31.2,26.4,29.11,NNW,338,2.9,9.3,82,0.00,,,-99.99,VWS V12.07,2013-01-19 21:55:00,
2013-01-19 16:00:00,30.7,25.9,29.10,NE,45,4.2,9.3,82,0.00,,,-99.99,VWS V12.07,2013-01-19 22:00:00,
2013-01-19 16:05:00,30.7,25.9,29.10,WSW,248,5.3,5.3,82,0.00,,,-99.99,VWS V12.07,2013-01-19 22:05:00,
2013-01-19 16:15:00,30.2,25.1,29.11,SSW,202,4.2,5.5,81,0.00,,,-99.99,VWS V12.07,2013-01-19 22:15:00,
2013-01-19 16:25:00,30.0,24.9,29.11,SW,225,11.8,11.8,81,0.00,,,-99.99,VWS V12.07,2013-01-19 22:25:00,
2013-01-19 16:30:00,29.8,24.4,29.10,WSW,248,0.0,11.8,80,0.00,,,-99.99,VWS V12.07,2013-01-19 22:30:00,
2013-01-19 16:40:00,29.4,24.0,29.10,SSW,202,0.4,4.9,80,0.00,,,-99.99,VWS V12.07,2013-01-19 22:40:00,
2013-01-19 16:45:00,29.4,24.3,29.10,SSW,202,5.1,5.5,81,0.00,,,-99.99,VWS V12.07,2013-01-19 22:45:00,
2013-01-19 16:50:00,29.3,24.2,29.10,SSW,202,3.1,5.1,81,0.00,,,-99.99,VWS V12.07,2013-01-19 22:50:00,
2013-01-19 16:55:00,29.1,24.0,29.10,SSE,158,2.6,5.1,81,0.00,,,-99.99,VWS V12.07,2013-01-19 22:55:00,
2013-01-19 17:05:00,29.1,23.7,29.09,SW,225,2.9,2.9,80,0.00,,,-99.99,VWS V12.07,2013-01-19 23:05:00,
2013-01-19 17:15:00,28.9,23.5,29.09,SSW,202,5.3,7.3,80,0.00,,,-99.99,VWS V12.07,2013-01-19 23:15:00,
2013-01-19 17:25:00,28.5,23.1,29.09,SW,225,3.3,5.3,80,0.00,,,-99.99,VWS V12.07,2013-01-19 23:25:00,
2013-01-19 17:35:00,27.6,22.5,29.09,West,270,2.4,5.5,81,0.00,,,-99.99,VWS V12.07,2013-01-19 23:35:00,
2013-01-19 17:45:00,27.3,22.5,29.09,South,180,1.7,5.5,82,0.00,,,-99.99,VWS V12.07,2013-01-19 23:45:00,
2013-01-19 17:50:00,27.1,22.4,29.09,SW,225,1.7,1.7,82,0.00,,,-99.99,VWS V12.07,2013-01-19 23:50:00,
2013-01-19 17:55:00,27.1,22.4,29.09,SW,225,0.8,2.0,82,0.00,,,-99.99,VWS V12.07,2013-01-19 23:55:00,
2013-01-19 18:00:00,26.9,21.9,29.09,WNW,292,4.2,4.2,81,0.00,,,-99.99,VWS V12.07,2013-01-20 00:00:00,
2013-01-19 18:05:00,26.9,21.9,29.10,North,0,6.0,6.0,81,0.00,,,-99.99,VWS V12.07,2013-01-20 00:05:00,
2013-01-19 18:15:00,26.2,21.2,29.12,WNW,292,10.9,10.9,81,0.00,,,-99.99,VWS V12.07,2013-01-20 00:15:00,
2013-01-19 18:20:00,25.3,20.0,29.13,WSW,248,6.2,10.9,80,0.00,,,-99.99,VWS V12.07,2013-01-20 00:20:00,
2013-01-19 18:35:00,22.8,17.6,29.15,ESE,112,12.9,12.9,80,0.00,,,-99.99,VWS V12.07,2013-01-20 00:35:00,
2013-01-19 18:45:00,21.3,15.8,29.16,NE,45,10.9,12.9,79,0.00,,,-99.99,VWS V12.07,2013-01-20 00:45:00,
2013-01-19 18:50:00,20.3,14.8,29.16,NNE,22,8.0,10.9,79,0.00,,,-99.99,VWS V12.07,2013-01-20 00:50:00,
2013-01-19 18:55:00,19.9,14.2,29.16,NW,315,4.6,10.9,78,0.00,,,-99.99,VWS V12.07,2013-01-20 00:55:00,
2013-01-19 19:00:00,19.2,13.5,29.17,NNE,22,5.1,10.9,78,0.00,,,-99.99,VWS V12.07,2013-01-20 01:00:00,
2013-01-19 19:05:00,18.6,12.9,29.18,WSW,248,1.7,10.7,78,0.00,,,-99.99,VWS V12.07,2013-01-20 01:05:00,
2013-01-19 19:15:00,17.9,12.5,29.19,East,90,2.9,10.7,79,0.00,,,-99.99,VWS V12.07,2013-01-20 01:15:00,
2013-01-19 19:20:00,17.4,11.7,29.20,West,270,1.7,10.9,78,0.00,,,-99.99,VWS V12.07,2013-01-20 01:20:00,
2013-01-19 19:25:00,16.8,11.1,29.20,NNE,22,2.4,10.9,78,0.00,,,-99.99,VWS V12.07,2013-01-20 01:25:00,
2013-01-19 19:30:00,16.3,10.4,29.21,South,180,3.1,10.9,77,0.00,,,-99.99,VWS V12.07,2013-01-20 01:30:00,
2013-01-19 19:35:00,15.8,9.9,29.21,NNE,22,2.6,3.3,77,0.00,,,-99.99,VWS V12.07,2013-01-20 01:35:00,
2013-01-19 19:40:00,15.4,9.5,29.21,NW,315,4.9,4.9,77,0.00,,,-99.99,VWS V12.07,2013-01-20 01:40:00,
2013-01-19 19:45:00,14.9,9.3,29.22,NNE,22,1.1,4.9,78,0.00,,,-99.99,VWS V12.07,2013-01-20 01:45:00,
2013-01-19 19:50:00,14.5,8.9,29.22,NNW,338,3.5,5.5,78,0.00,,,-99.99,VWS V12.07,2013-01-20 01:50:00,
2013-01-19 19:55:00,14.1,8.5,29.22,West,270,4.4,5.5,78,0.00,,,-99.99,VWS V12.07,2013-01-20 01:55:00,
2013-01-19 20:05:00,13.6,8.0,29.23,WSW,248,6.0,6.0,78,0.00,,,-99.99,VWS V12.07,2013-01-20 02:05:00,
2013-01-19 20:15:00,12.7,6.9,29.24,WSW,248,5.3,6.0,77,0.00,,,-99.99,VWS V12.07,2013-01-20 02:15:00,
2013-01-19 20:20:00,12.5,6.7,29.24,NE,45,5.1,5.3,77,0.00,,,-99.99,VWS V12.07,2013-01-20 02:20:00,
2013-01-19 20:25:00,12.2,6.4,29.25,SW,225,3.1,5.3,77,0.00,,,-99.99,VWS V12.07,2013-01-20 02:25:00,
2013-01-19 20:35:00,11.6,5.8,29.26,NNE,22,12.9,12.9,77,0.00,,,-99.99,VWS V12.07,2013-01-20 02:35:00,
2013-01-19 20:40:00,11.4,5.6,29.26,SW,225,0.0,12.9,77,0.00,,,-99.99,VWS V12.07,2013-01-20 02:40:00,
2013-01-19 20:45:00,11.1,5.3,29.26,NNW,338,3.5,12.9,77,0.00,,,-99.99,VWS V12.07,2013-01-20 02:45:00,
2013-01-19 20:55:00,10.5,4.4,29.26,NNE,22,1.1,11.1,76,0.00,,,-99.99,VWS V12.07,2013-01-20 02:55:00,
2013-01-19 21:00:00,10.0,3.7,29.27,NE,45,3.3,11.1,75,0.00,,,-99.99,VWS V12.07,2013-01-20 03:00:00,
2013-01-19 21:05:00,9.6,3.3,29.28,WNW,292,8.0,8.0,75,0.00,,,-99.99,VWS V12.07,2013-01-20 03:05:00,
2013-01-19 21:10:00,9.6,3.3,29.28,West,270,4.2,8.0,75,0.00,,,-99.99,VWS V12.07,2013-01-20 03:10:00,
2013-01-19 21:15:00,9.5,3.2,29.29,West,270,4.6,8.5,75,0.00,,,-99.99,VWS V12.07,2013-01-20 03:15:00,
2013-01-19 21:20:00,9.1,2.5,29.29,NE,45,8.2,8.2,74,0.00,,,-99.99,VWS V12.07,2013-01-20 03:20:00,
2013-01-19 21:25:00,9.1,2.5,29.29,SSW,202,1.7,8.2,74,0.00,,,-99.99,VWS V12.07,2013-01-20 03:25:00,
2013-01-19 21:35:00,8.4,1.5,29.30,WSW,248,0.0,6.2,73,0.00,,,-99.99,VWS V12.07,2013-01-20 03:35:00,
2013-01-19 21:40:00,8.4,1.5,29.30,WSW,248,3.8,6.2,73,0.00,,,-99.99,VWS V12.07,2013-01-20 03:40:00,
2013-01-19 21:50:00,7.8,1.0,29.31,SW,225,7.3,8.5,73,0.00,,,-99.99,VWS V12.07,2013-01-20 03:50:00,
2013-01-19 21:55:00,7.7,0.6,29.32,NNE,22,3.1,8.5,72,0.00,,,-99.99,VWS V12.07,2013-01-20 03:55:00,
2013-01-19 22:05:00,7.1,0.0,29.33,SSW,202,3.8,5.8,72,0.00,,,-99.99,VWS V12.07,2013-01-20 04:05:00,
2013-01-19 22:10:00,6.9,-0.2,29.34,NW,315,4.4,5.8,72,0.00,,,-99.99,VWS V12.07,2013-01-20 04:10:00,
2013-01-19 22:20:00,6.4,-0.7,29.35,NE,45,3.3,5.3,72,0.00,,,-99.99,VWS V12.07,2013-01-20 04:20:00,
2013-01-19 22:25:00,6.4,-0.4,29.37,NW,315,2.0,5.3,73,0.00,,,-99.99,VWS V12.07,2013-01-20 04:25:00,
2013-01-19 22:35:00,5.5,-1.0,29.37,NE,45,3.1,4.9,74,0.00,,,-99.99,VWS V12.07,2013-01-20 04:35:00,
2013-01-19 22:40:00,5.3,-0.9,29.37,WNW,292,2.6,5.1,75,0.00,,,-99.99,VWS V12.07,2013-01-20 04:40:00,
2013-01-19 22:50:00,4.8,-1.4,29.36,NW,315,1.3,9.6,75,0.00,,,-99.99,VWS V12.07,2013-01-20 04:50:00,
2013-01-19 22:55:00,4.6,-1.6,29.36,WSW,248,2.9,9.6,75,0.00,,,-99.99,VWS V12.07,2013-01-20 04:55:00,
2013-01-19 23:05:00,3.9,-2.2,29.35,SSW,202,2.9,6.9,75,0.00,,,-99.99,VWS V12.07,2013-01-20 05:05:00,
2013-01-19 23:10:00,3.9,-2.2,29.36,WSW,248,5.3,6.9,75,0.00,,,-99.99,VWS V12.07,2013-01-20 05:10:00,
2013-01-19 23:15:00,3.3,-2.8,29.36,WNW,292,8.0,8.0,75,0.00,,,-99.99,VWS V12.07,2013-01-20 05:15:00,
2013-01-19 23:20:00,3.3,-2.8,29.37,West,270,2.4,8.0,75,0.00,,,-99.99,VWS V12.07,2013-01-20 05:20:00,
2013-01-19 23:25:00,3.0,-3.1,29.37,NNW,338,2.9,8.0,75,0.00,,,-99.99,VWS V12.07,2013-01-20 05:25:00,
2013-01-19 23:30:00,2.8,-3.3,29.38,WSW,248,5.5,8.0,75,0.00,,,-99.99,VWS V12.07,2013-01-20 05:30:00,
2013-01-19 23:35:00,2.8,-3.3,29.38,SSW,202,3.3,5.5,75,0.00,,,-99.99,VWS V12.07,2013-01-20 05:35:00,
2013-01-19 23:40:00,2.8,-3.3,29.39,WNW,292,0.0,7.6,75,0.00,,,-99.99,VWS V12.07,2013-01-20 05:40:00,
2013-01-19 23:50:00,2.4,-3.7,29.40,WNW,292,8.5,8.5,75,0.00,,,-99.99,VWS V12.07,2013-01-20 05:50:00,
2013-01-19 23:55:00,2.4,-3.7,29.40,NNE,22,0.2,8.5,75,0.00,,,-99.99,VWS V12.07,2013-01-20 05:55:00,